CPP2 weather

Collingwood (General and Marine Hospital) Heliport
Collingwood, Ontario, Canada

Public forecast

Using degrees Celsius for public forecast. Weather courtesy of forecast.io.

Closest aviation weather report (METAR) to Collingwood (General and Marine Hospital) Heliport

Closest report is CFB Borden, 18.5 nm (34.3 km) SE. Retrieved 2019/10/19 03:12 UTC (44 minutes ago):

CYBN 190312Z AUTO 24003KT 6SM CLR M03/M03 A3005 RMK ICG

Closest aviation forecast (TAF) to Collingwood (General and Marine Hospital) Heliport

Forecast is more than 6 hours old.

Closest forecast is CFB Borden, 18.5 nm (34.3 km) SE. Retrieved 2019/10/18 18:33 UTC (9 hours ago):

TAF TAF CYBN 181730Z 1818/1906 33010KT P6SM BKN020 BECMG 1818/1819 SCT025 SCT240 BECMG 1823/1901 VRB03KT RMK FCST BASED ON AUTO OBS NXT FCST BY 190000Z